Time;durP1;ratioP1;P1;durP2;ratioP2;P2;SDS_P1;SDS_P2;PMS_P1;PMS_P2;Temp;Humidity;BMP_temperature;BMP_pressure;BME280_temperature;BME280_humidity;BME280_pressure;Samples;Min_cycle;Max_cycle;Signal;HPM_P1;HPM_P2
2022/08/03 00:00:35;;;;;;;3.38;2.25;;;24.90;99.90;;;;;;6096961;28;89187;-66
2022/08/03 00:03:37;;;;;;;2.22;2.03;;;24.90;99.90;;;;;;6100174;28;89142;-66
2022/08/03 00:06:40;;;;;;;2.25;1.90;;;24.90;99.90;;;;;;6099700;28;88020;-66
2022/08/03 00:09:42;;;;;;;2.08;1.77;;;25.00;99.90;;;;;;6093552;28;88964;-66
2022/08/03 00:12:46;;;;;;;3.00;2.00;;;24.90;99.90;;;;;;6106321;28;89448;-66
2022/08/03 00:15:48;;;;;;;3.15;1.95;;;25.00;99.90;;;;;;6110087;28;89243;-66
2022/08/03 00:18:50;;;;;;;2.45;2.25;;;24.90;99.90;;;;;;6098892;28;88450;-66
2022/08/03 00:21:52;;;;;;;2.20;1.90;;;24.90;99.90;;;;;;6108200;28;89188;-66
2022/08/03 00:24:54;;;;;;;4.10;2.28;;;24.90;99.90;;;;;;6092950;28;89267;-68
2022/08/03 00:27:57;;;;;;;2.42;2.10;;;24.90;99.90;;;;;;6099982;28;90537;-68
2022/08/03 00:30:59;;;;;;;3.50;2.40;;;24.90;99.90;;;;;;6107914;28;89107;-68
2022/08/03 00:34:01;;;;;;;3.35;2.20;;;24.90;99.90;;;;;;6109769;28;89085;-68
2022/08/03 00:37:03;;;;;;;3.25;2.08;;;24.80;99.90;;;;;;6100947;28;87821;-67
2022/08/03 00:40:06;;;;;;;2.42;1.80;;;24.90;99.90;;;;;;6099539;28;89678;-68
2022/08/03 00:43:10;;;;;;;2.35;2.15;;;24.90;99.90;;;;;;6097420;28;89042;-68
2022/08/03 00:46:12;;;;;;;3.13;1.70;;;24.80;99.90;;;;;;6106521;28;89152;-68
2022/08/03 00:49:14;;;;;;;2.33;2.13;;;24.90;99.90;;;;;;6096136;28;88664;-68
2022/08/03 00:52:16;;;;;;;2.47;1.83;;;24.90;99.90;;;;;;6102475;28;89342;-68
2022/08/03 00:55:18;;;;;;;2.30;2.10;;;24.80;99.90;;;;;;6102716;28;87930;-68
2022/08/03 00:58:23;;;;;;;2.50;1.88;;;24.90;99.90;;;;;;6090273;28;89932;-68
2022/08/03 01:01:25;;;;;;;2.38;2.00;;;24.90;99.90;;;;;;6107451;28;89059;-68
2022/08/03 01:04:27;;;;;;;2.75;2.08;;;24.90;99.90;;;;;;6102710;28;89014;-68
2022/08/03 01:07:41;;;;;;;3.15;1.92;;;24.90;99.90;;;;;;6108983;28;89349;-68
2022/08/03 01:10:57;;;;;;;3.05;2.10;;;24.80;99.90;;;;;;6099390;28;89125;-68
2022/08/03 01:14:06;;;;;;;3.45;2.35;;;24.80;99.90;;;;;;6094622;28;87947;-68
2022/08/03 01:17:13;;;;;;;2.60;2.20;;;24.80;99.90;;;;;;6091313;28;89081;-68
2022/08/03 01:20:18;;;;;;;2.33;2.13;;;24.80;99.90;;;;;;6109329;28;88355;-69
2022/08/03 01:24:00;;;;;;;2.72;2.00;;;24.80;99.90;;;;;;6085815;28;87868;-68
2022/08/03 01:27:09;;;;;;;2.45;2.20;;;24.80;99.90;;;;;;6073531;28;89386;-68
2022/08/03 01:30:13;;;;;;;2.20;2.00;;;24.80;99.90;;;;;;6084434;28;90184;-68
2022/08/03 01:33:19;;;;;;;3.05;2.20;;;24.80;99.90;;;;;;6086219;28;88891;-68
2022/08/03 01:36:25;;;;;;;2.17;1.90;;;24.80;99.90;;;;;;6103577;28;89553;-68
2022/08/03 01:39:31;;;;;;;2.88;2.30;;;24.70;99.90;;;;;;6095963;28;89151;-68
2022/08/03 01:42:35;;;;;;;2.22;2.03;;;24.70;99.90;;;;;;6108240;28;89067;-68
2022/08/03 01:45:39;;;;;;;2.80;2.08;;;24.70;99.90;;;;;;6085936;28;89184;-68
2022/08/03 01:48:44;;;;;;;2.50;2.10;;;24.70;99.90;;;;;;6089421;28;89234;-68
2022/08/03 01:51:48;;;;;;;2.20;2.00;;;24.80;99.90;;;;;;6097922;28;88308;-68
2022/08/03 01:54:53;;;;;;;2.35;2.03;;;24.80;99.90;;;;;;6097187;28;89139;-68
2022/08/03 01:57:56;;;;;;;4.30;2.20;;;24.70;99.90;;;;;;6103470;28;87914;-68
2022/08/03 02:01:02;;;;;;;3.60;2.20;;;24.70;99.90;;;;;;6096372;28;90015;-68
2022/08/03 02:04:06;;;;;;;3.15;2.30;;;24.70;99.90;;;;;;6104181;28;89298;-68
2022/08/03 02:07:10;;;;;;;3.40;2.35;;;24.70;99.90;;;;;;6106944;28;88057;-70
2022/08/03 02:10:15;;;;;;;2.22;2.03;;;24.70;99.90;;;;;;6095599;28;89181;-68
2022/08/03 02:13:18;;;;;;;3.42;2.08;;;24.70;99.90;;;;;;6085655;28;89012;-68
2022/08/03 02:16:23;;;;;;;2.30;2.10;;;24.70;99.90;;;;;;6107105;28;91444;-68
2022/08/03 02:19:26;;;;;;;4.47;2.40;;;24.70;99.90;;;;;;6107578;28;89200;-68
2022/08/03 02:22:30;;;;;;;2.60;2.03;;;24.70;99.90;;;;;;6106824;28;88645;-68
2022/08/03 02:25:34;;;;;;;3.75;2.30;;;24.60;99.90;;;;;;6105462;28;89039;-68
2022/08/03 02:28:41;;;;;;;2.97;2.40;;;24.70;99.90;;;;;;6106909;28;89002;-68
2022/08/03 02:31:46;;;;;;;2.83;2.53;;;24.70;99.90;;;;;;6106792;28;90201;-68
2022/08/03 02:34:52;;;;;;;2.72;2.42;;;24.60;99.90;;;;;;6106885;28;89342;-68
2022/08/03 02:38:01;;;;;;;4.30;2.38;;;24.60;99.90;;;;;;6095239;28;89125;-68
2022/08/03 02:41:07;;;;;;;3.60;2.60;;;24.60;99.90;;;;;;6107231;28;89309;-68
2022/08/03 02:44:11;;;;;;;2.63;2.13;;;24.60;99.90;;;;;;6100799;28;89403;-68
2022/08/03 02:47:16;;;;;;;2.53;2.30;;;24.70;99.90;;;;;;6110057;28;90220;-68
2022/08/03 02:50:20;;;;;;;2.70;2.08;;;24.60;99.90;;;;;;6111138;28;89484;-68
2022/08/03 02:53:23;;;;;;;2.60;2.25;;;24.60;99.90;;;;;;6111986;28;88425;-68
2022/08/03 02:56:27;;;;;;;3.28;2.45;;;24.60;99.90;;;;;;6103842;28;89243;-68
2022/08/03 02:59:31;;;;;;;4.50;2.40;;;24.60;99.90;;;;;;6101015;28;89185;-68
2022/08/03 03:02:35;;;;;;;4.13;2.42;;;24.60;99.90;;;;;;6103943;28;90163;-68
2022/08/03 03:05:37;;;;;;;4.05;2.40;;;24.60;99.90;;;;;;6088173;28;88989;-68
2022/08/03 03:08:40;;;;;;;2.78;2.30;;;24.60;99.90;;;;;;6103995;28;88994;-68
2022/08/03 03:11:43;;;;;;;2.42;2.22;;;24.60;99.90;;;;;;6111671;28;87998;-68
2022/08/03 03:14:45;;;;;;;2.92;2.17;;;24.50;99.90;;;;;;6100995;28;89114;-68
2022/08/03 03:17:49;;;;;;;4.47;2.30;;;24.50;99.90;;;;;;6110912;28;89064;-68
2022/08/03 03:20:53;;;;;;;3.05;2.40;;;24.60;99.90;;;;;;6090212;28;88994;-68
2022/08/03 03:23:56;;;;;;;3.70;2.55;;;24.60;99.90;;;;;;6089352;28;88324;-68
2022/08/03 03:26:59;;;;;;;4.22;2.58;;;24.50;99.90;;;;;;6088893;28;88497;-68
2022/08/03 03:30:02;;;;;;;3.78;2.70;;;24.50;99.90;;;;;;6089065;28;89133;-67
2022/08/03 03:33:06;;;;;;;2.78;2.50;;;24.50;99.90;;;;;;6088880;28;90152;-68
2022/08/03 03:36:08;;;;;;;3.50;2.38;;;24.50;99.90;;;;;;6088927;28;89176;-68
2022/08/03 03:39:10;;;;;;;3.83;2.45;;;24.50;99.90;;;;;;6089235;28;89063;-68
2022/08/03 03:42:12;;;;;;;5.40;2.35;;;24.50;99.90;;;;;;6088645;28;89082;-68
2022/08/03 03:45:15;;;;;;;3.17;2.35;;;24.50;99.90;;;;;;6088555;28;90812;-68
2022/08/03 03:48:19;;;;;;;2.67;2.30;;;24.50;99.90;;;;;;6089002;28;89126;-68
2022/08/03 03:51:21;;;;;;;4.72;2.50;;;24.50;99.90;;;;;;6088255;28;89123;-68
2022/08/03 03:54:23;;;;;;;2.78;2.50;;;24.50;99.90;;;;;;6088840;28;88384;-68
2022/08/03 03:57:25;;;;;;;3.47;2.58;;;24.50;99.90;;;;;;6088742;28;89084;-68
2022/08/03 04:00:27;;;;;;;2.63;2.40;;;24.50;99.90;;;;;;6088576;28;89150;-68
2022/08/03 04:03:31;;;;;;;4.25;2.72;;;24.40;99.90;;;;;;6087996;28;88914;-68
2022/08/03 04:13:15;;;;;;;2.53;2.33;;;24.40;99.90;;;;;;6092583;28;88593;-66
2022/08/03 04:16:21;;;;;;;2.95;2.30;;;24.50;99.90;;;;;;6103260;28;89158;-67
2022/08/03 04:19:29;;;;;;;4.28;2.30;;;24.40;99.90;;;;;;6092017;28;89382;-66
2022/08/03 04:22:32;;;;;;;2.60;2.30;;;24.40;99.90;;;;;;6095277;28;89192;-68
2022/08/03 04:25:37;;;;;;;2.17;1.98;;;24.40;99.90;;;;;;6097363;28;88360;-68
2022/08/03 04:28:43;;;;;;;3.63;2.30;;;24.40;99.90;;;;;;6101805;28;89116;-68
2022/08/03 04:31:46;;;;;;;3.67;2.15;;;24.40;99.90;;;;;;6092829;28;89079;-68
2022/08/03 04:34:50;;;;;;;3.83;2.25;;;24.40;99.90;;;;;;6102697;28;90303;-68
2022/08/03 04:37:53;;;;;;;2.97;2.35;;;24.40;99.90;;;;;;6103198;28;89125;-68
2022/08/03 04:40:56;;;;;;;3.08;2.42;;;24.40;99.90;;;;;;6098108;28;89046;-68
2022/08/03 04:44:00;;;;;;;4.00;2.78;;;24.40;99.90;;;;;;6093248;28;89156;-66
2022/08/03 04:47:03;;;;;;;3.60;2.92;;;24.50;99.90;;;;;;6100770;28;89057;-66
2022/08/03 04:50:07;;;;;;;4.40;2.65;;;24.40;99.90;;;;;;6086718;28;89058;-66
2022/08/03 04:53:09;;;;;;;3.00;2.70;;;24.40;99.90;;;;;;6093253;28;89156;-66
2022/08/03 04:56:11;;;;;;;3.92;2.58;;;24.40;99.90;;;;;;6109464;28;88339;-65
2022/08/03 04:59:13;;;;;;;3.83;2.65;;;24.40;99.90;;;;;;6100685;28;89199;-66
2022/08/03 05:02:15;;;;;;;4.28;2.85;;;24.50;99.90;;;;;;6103222;28;89259;-65
2022/08/03 05:05:19;;;;;;;4.78;2.70;;;24.40;99.90;;;;;;6101229;28;89937;-66
2022/08/03 05:08:21;;;;;;;4.70;2.70;;;24.50;99.90;;;;;;6093203;28;89698;-66
2022/08/03 05:11:23;;;;;;;5.35;3.05;;;24.50;99.90;;;;;;6100016;28;88988;-66
2022/08/03 05:14:25;;;;;;;5.97;3.30;;;24.50;99.90;;;;;;6102309;28;89879;-66
2022/08/03 05:17:28;;;;;;;6.63;3.40;;;24.50;99.90;;;;;;6100363;28;87967;-66
2022/08/03 05:20:32;;;;;;;5.75;2.88;;;24.50;99.90;;;;;;6096085;28;89125;-66
2022/08/03 05:23:34;;;;;;;4.20;2.65;;;24.50;99.90;;;;;;6101662;28;88278;-66
2022/08/03 05:26:36;;;;;;;5.82;3.08;;;24.50;99.90;;;;;;6100699;28;88473;-66
2022/08/03 05:29:38;;;;;;;4.05;2.90;;;24.50;99.90;;;;;;6098218;28;89403;-65
2022/08/03 05:32:40;;;;;;;5.60;3.47;;;24.60;99.90;;;;;;6095649;28;89000;-66
2022/08/03 05:35:43;;;;;;;3.33;3.03;;;24.50;99.90;;;;;;6099519;28;92171;-66
2022/08/03 05:38:45;;;;;;;3.17;2.67;;;24.60;99.90;;;;;;6104490;28;88110;-66
2022/08/03 05:41:47;;;;;;;4.63;2.55;;;24.50;99.90;;;;;;6101421;28;89163;-66
2022/08/03 05:44:49;;;;;;;3.85;2.58;;;24.60;99.90;;;;;;6094453;28;89335;-66
2022/08/03 05:47:51;;;;;;;4.97;2.90;;;24.60;99.90;;;;;;6096824;28;89056;-66
2022/08/03 05:50:55;;;;;;;3.15;2.85;;;24.60;99.90;;;;;;6087193;28;89112;-66
2022/08/03 05:53:57;;;;;;;3.50;2.70;;;24.60;99.90;;;;;;6101616;28;89163;-66
2022/08/03 05:56:59;;;;;;;4.57;2.88;;;24.60;99.90;;;;;;6101705;28;88423;-66
2022/08/03 06:00:02;;;;;;;3.55;2.58;;;24.60;99.90;;;;;;6099685;28;89253;-66
2022/08/03 06:03:05;;;;;;;2.60;2.40;;;24.60;99.90;;;;;;6092570;28;89408;-65
2022/08/03 06:06:08;;;;;;;4.38;2.78;;;24.60;99.90;;;;;;6098846;28;89999;-66
2022/08/03 06:09:10;;;;;;;3.22;2.70;;;24.60;99.90;;;;;;6098646;28;89669;-66
2022/08/03 06:12:12;;;;;;;3.47;2.72;;;24.60;99.90;;;;;;6099987;28;89339;-66
2022/08/03 06:15:14;;;;;;;3.42;2.80;;;24.60;99.90;;;;;;6098245;28;88321;-66
2022/08/03 06:18:16;;;;;;;3.78;2.70;;;24.70;99.90;;;;;;6103775;28;88602;-66
2022/08/03 06:21:20;;;;;;;3.70;2.53;;;24.60;99.90;;;;;;6096319;28;89358;-65
2022/08/03 06:24:21;;;;;;;3.75;2.92;;;24.70;99.90;;;;;;6098312;28;89102;-66
2022/08/03 06:27:23;;;;;;;4.05;2.67;;;24.70;99.90;;;;;;6097131;28;88093;-66
2022/08/03 06:30:26;;;;;;;2.90;2.70;;;24.60;99.90;;;;;;6107119;28;87893;-66
2022/08/03 06:33:28;;;;;;;2.58;2.38;;;24.70;99.90;;;;;;6105152;28;89063;-66
2022/08/03 06:36:31;;;;;;;2.80;2.50;;;24.60;99.90;;;;;;6102627;28;90039;-65
2022/08/03 06:39:34;;;;;;;3.00;2.60;;;24.70;99.90;;;;;;6099078;28;88393;-66
2022/08/03 06:42:36;;;;;;;3.17;2.78;;;24.60;99.90;;;;;;6103806;28;89261;-66
2022/08/03 06:45:38;;;;;;;2.70;2.45;;;24.70;99.90;;;;;;6101135;28;89132;-66
2022/08/03 06:48:40;;;;;;;2.80;2.55;;;24.60;99.90;;;;;;6098283;28;88281;-66
2022/08/03 06:51:43;;;;;;;2.70;2.50;;;24.70;99.90;;;;;;6097255;28;88964;-66
2022/08/03 06:54:45;;;;;;;2.97;2.67;;;24.70;99.90;;;;;;6100323;28;89028;-66
2022/08/03 06:57:47;;;;;;;3.45;2.50;;;24.70;99.90;;;;;;6103977;28;87293;-65
2022/08/03 07:00:49;;;;;;;3.33;2.70;;;24.70;99.90;;;;;;6102548;28;89112;-66
2022/08/03 07:03:53;;;;;;;2.53;2.33;;;24.70;99.90;;;;;;6098698;28;88737;-66
2022/08/03 07:06:57;;;;;;;2.65;2.28;;;24.70;99.90;;;;;;6090449;28;90558;-66
2022/08/03 07:09:59;;;;;;;2.60;2.40;;;24.70;99.90;;;;;;6099631;28;89052;-66
2022/08/03 07:13:01;;;;;;;3.03;2.28;;;24.70;99.90;;;;;;6103614;28;89065;-66
2022/08/03 07:16:03;;;;;;;3.40;2.70;;;24.70;99.90;;;;;;6103679;28;89077;-65
2022/08/03 07:19:05;;;;;;;3.13;2.75;;;24.70;99.90;;;;;;6097547;28;89409;-66
2022/08/03 07:22:09;;;;;;;3.00;2.40;;;24.70;99.90;;;;;;6093453;28;89096;-66
2022/08/03 07:25:12;;;;;;;2.67;2.40;;;24.70;99.90;;;;;;6090070;28;89065;-66
2022/08/03 07:28:14;;;;;;;3.72;2.42;;;24.70;99.90;;;;;;6104450;28;88343;-66
2022/08/03 07:31:16;;;;;;;2.83;2.53;;;24.70;99.90;;;;;;6091087;28;89050;-66
2022/08/03 07:34:18;;;;;;;2.58;2.38;;;24.80;99.90;;;;;;6099518;28;89049;-66
2022/08/03 07:37:21;;;;;;;2.53;2.33;;;24.70;99.90;;;;;;6097174;28;90022;-66
2022/08/03 07:40:23;;;;;;;2.75;2.55;;;24.80;99.90;;;;;;6092985;28;89123;-66
2022/08/03 07:43:25;;;;;;;3.00;2.70;;;24.70;99.90;;;;;;6091019;28;87914;-66
2022/08/03 07:46:27;;;;;;;3.28;2.42;;;24.70;99.90;;;;;;6099797;28;88983;-66
2022/08/03 07:49:29;;;;;;;2.55;2.35;;;24.80;99.90;;;;;;6094343;28;89528;-66
2022/08/03 07:52:52;;;;;;;2.70;2.50;;;24.80;99.90;;;;;;6099596;28;89262;-66
2022/08/03 07:55:54;;;;;;;2.65;2.45;;;24.80;99.90;;;;;;6098025;28;89071;-66
2022/08/03 07:58:56;;;;;;;2.40;2.20;;;24.80;99.90;;;;;;6095301;28;88347;-66
2022/08/03 08:01:58;;;;;;;2.50;2.30;;;24.80;99.90;;;;;;6096579;28;89397;-66
2022/08/03 08:05:00;;;;;;;2.50;2.30;;;24.80;99.90;;;;;;6097425;28;89084;-65
2022/08/03 08:08:04;;;;;;;2.63;2.42;;;24.80;99.90;;;;;;6094014;28;89091;-69
2022/08/03 08:11:07;;;;;;;2.80;2.50;;;24.80;99.90;;;;;;6097781;28;89088;-66
2022/08/03 08:14:09;;;;;;;2.75;2.45;;;24.80;99.90;;;;;;6098884;28;88034;-66
2022/08/03 08:17:11;;;;;;;2.30;2.10;;;24.70;99.90;;;;;;6100333;28;89053;-66
2022/08/03 08:20:18;;;;;;;2.40;2.20;;;24.80;99.90;;;;;;6097098;28;89135;-66
2022/08/03 08:23:22;;;;;;;2.40;2.20;;;24.80;99.90;;;;;;6089941;28;89096;-66
2022/08/03 08:26:24;;;;;;;2.60;2.40;;;24.70;99.90;;;;;;6102127;28;89098;-66
2022/08/03 08:29:26;;;;;;;2.85;2.20;;;24.80;99.90;;;;;;6093112;28;87658;-65
2022/08/03 08:32:28;;;;;;;2.35;2.15;;;24.70;99.90;;;;;;6102825;28;89110;-66
2022/08/03 08:35:31;;;;;;;2.47;2.20;;;24.80;99.90;;;;;;6095685;28;89000;-66
2022/08/03 08:38:36;;;;;;;3.08;2.53;;;24.80;99.90;;;;;;6093028;28;88924;-66
2022/08/03 08:41:38;;;;;;;2.50;2.30;;;24.80;99.90;;;;;;6093591;28;89228;-66
2022/08/03 08:44:40;;;;;;;2.90;2.30;;;24.80;99.90;;;;;;6098193;28;88296;-66
2022/08/03 08:47:46;;;;;;;2.35;2.08;;;24.80;99.90;;;;;;6101727;28;88147;-66
2022/08/03 08:50:52;;;;;;;2.20;2.00;;;24.80;99.90;;;;;;6103245;28;87993;-66
2022/08/03 08:53:58;;;;;;;2.90;2.60;;;24.80;99.90;;;;;;6093375;28;89675;-66
2022/08/03 08:57:03;;;;;;;3.38;2.65;;;24.80;99.90;;;;;;6105533;28;89178;-66
2022/08/03 09:00:08;;;;;;;2.40;2.20;;;24.80;99.90;;;;;;6092819;28;86980;-66
2022/08/03 09:03:10;;;;;;;2.42;2.22;;;24.80;99.90;;;;;;6095031;28;89000;-66
2022/08/03 09:06:12;;;;;;;2.40;2.20;;;24.80;99.90;;;;;;6093866;28;89055;-66
2022/08/03 09:09:16;;;;;;;2.50;2.30;;;24.80;99.90;;;;;;6100177;28;90010;-66
2022/08/03 09:12:18;;;;;;;2.60;2.35;;;24.80;99.90;;;;;;6099945;28;89032;-66
2022/08/03 09:15:22;;;;;;;2.97;2.40;;;24.80;99.90;;;;;;6094262;28;90134;-66
2022/08/03 09:18:29;;;;;;;2.55;2.35;;;24.80;99.90;;;;;;6099965;28;89625;-66
2022/08/03 09:21:31;;;;;;;2.63;2.40;;;24.80;99.90;;;;;;6095719;28;89059;-66
2022/08/03 09:24:35;;;;;;;3.03;2.63;;;24.80;99.90;;;;;;6097610;28;89142;-66
2022/08/03 09:27:43;;;;;;;3.58;2.70;;;24.80;99.90;;;;;;6100171;28;90132;-66
2022/08/03 09:30:58;;;;;;;2.20;2.10;;;24.80;99.90;;;;;;6100105;28;88332;-66
2022/08/03 09:34:05;;;;;;;2.80;2.60;;;24.80;99.90;;;;;;6092060;28;89428;-66
2022/08/03 09:37:14;;;;;;;2.85;2.60;;;24.80;99.90;;;;;;6100696;28;89316;-67
2022/08/03 09:40:34;;;;;;;2.60;2.40;;;24.80;99.90;;;;;;6099376;28;91294;-67
2022/08/03 09:43:46;;;;;;;2.47;2.28;;;24.80;99.90;;;;;;6092774;28;89107;-66
2022/08/03 09:46:49;;;;;;;2.80;2.60;;;24.80;99.90;;;;;;6096169;28;89394;-66
2022/08/03 09:50:00;;;;;;;2.60;2.40;;;24.80;99.90;;;;;;6091904;28;89078;-67
2022/08/03 09:53:03;;;;;;;2.50;2.30;;;24.80;99.90;;;;;;6098552;28;89094;-67
2022/08/03 09:56:06;;;;;;;2.60;2.40;;;24.80;99.90;;;;;;6096288;28;89100;-67
2022/08/03 09:59:09;;;;;;;2.53;2.33;;;24.90;99.90;;;;;;6094670;28;89365;-66
2022/08/03 10:02:22;;;;;;;2.53;2.33;;;24.80;99.90;;;;;;6097708;28;88497;-67
2022/08/03 10:05:32;;;;;;;2.50;2.30;;;24.80;99.90;;;;;;6101080;28;89051;-67
2022/08/03 10:08:34;;;;;;;3.92;2.30;;;24.90;99.90;;;;;;6102485;28;89438;-67
2022/08/03 10:11:39;;;;;;;2.80;2.60;;;24.80;99.90;;;;;;6090523;28;90343;-67
2022/08/03 10:14:44;;;;;;;2.65;2.45;;;24.80;99.90;;;;;;6095367;28;89835;-66
2022/08/03 10:17:46;;;;;;;2.53;2.33;;;24.80;99.90;;;;;;6094271;28;90630;-67
2022/08/03 10:20:52;;;;;;;2.55;2.08;;;24.80;99.90;;;;;;6094128;28;89173;-66
2022/08/03 10:23:56;;;;;;;2.80;2.60;;;24.80;99.90;;;;;;6086771;28;89437;-67
2022/08/03 10:27:03;;;;;;;2.50;2.30;;;24.80;99.90;;;;;;6100368;28;89220;-66
2022/08/03 10:30:09;;;;;;;2.40;2.20;;;24.80;99.90;;;;;;6101656;28;89353;-67
2022/08/03 10:33:17;;;;;;;2.45;2.25;;;24.80;99.90;;;;;;6096172;28;88369;-67
2022/08/03 10:36:22;;;;;;;2.40;2.20;;;24.90;99.90;;;;;;6090399;28;88029;-66
2022/08/03 10:39:29;;;;;;;2.40;2.20;;;24.80;99.90;;;;;;6094623;28;88294;-66
2022/08/03 10:42:33;;;;;;;2.03;1.92;;;24.90;99.90;;;;;;6094776;28;88980;-67
2022/08/03 10:45:39;;;;;;;2.50;2.30;;;24.90;99.90;;;;;;6099434;28;91162;-66
2022/08/03 10:48:42;;;;;;;2.70;2.50;;;24.90;99.90;;;;;;6100139;28;89092;-66
2022/08/03 10:51:46;;;;;;;2.30;2.10;;;24.90;99.90;;;;;;6093001;28;89111;-67
2022/08/03 10:58:08;;;;;;;2.42;2.22;;;24.90;99.90;;;;;;6104409;28;87431;-67
2022/08/03 11:01:12;;;;;;;2.45;2.25;;;24.90;99.90;;;;;;6101129;28;88266;-66
2022/08/03 11:04:18;;;;;;;2.40;2.20;;;24.90;99.90;;;;;;6094967;28;88420;-67
2022/08/03 11:07:22;;;;;;;2.50;2.30;;;24.90;99.90;;;;;;6096658;28;89497;-67
2022/08/03 11:10:31;;;;;;;2.35;2.15;;;24.80;99.90;;;;;;6107610;28;89190;-66
2022/08/03 11:13:34;;;;;;;2.72;2.53;;;24.90;99.90;;;;;;6089190;28;89964;-67
2022/08/03 11:16:39;;;;;;;2.78;2.58;;;24.90;99.90;;;;;;6102903;28;89291;-66
2022/08/03 11:19:44;;;;;;;2.42;2.22;;;24.90;99.90;;;;;;6097754;28;89060;-67
2022/08/03 11:22:53;;;;;;;2.70;2.50;;;24.90;99.90;;;;;;6103380;28;89008;-67
2022/08/03 11:26:17;;;;;;;2.40;2.20;;;24.90;99.90;;;;;;6095344;28;89180;-67
2022/08/03 11:29:30;;;;;;;2.53;2.33;;;24.90;99.90;;;;;;6093015;28;89194;-66
2022/08/03 11:32:51;;;;;;;2.50;2.30;;;24.90;99.90;;;;;;6108311;28;89086;-67
2022/08/03 11:35:59;;;;;;;2.50;2.30;;;24.90;99.90;;;;;;6093320;28;88369;-66
2022/08/03 11:39:14;;;;;;;2.10;2.00;;;24.90;99.90;;;;;;6101577;28;87939;-67
2022/08/03 11:42:47;;;;;;;2.95;2.65;;;24.90;99.90;;;;;;6098189;28;89157;-67
2022/08/03 11:45:59;;;;;;;2.47;2.28;;;24.90;99.90;;;;;;6098763;28;89969;-67
2022/08/03 11:49:06;;;;;;;2.25;2.13;;;24.90;99.90;;;;;;6086864;28;89159;-67
2022/08/03 11:52:08;;;;;;;2.47;2.28;;;24.90;99.90;;;;;;6093123;28;89043;-67
2022/08/03 11:55:17;;;;;;;2.60;2.30;;;24.90;99.90;;;;;;6100053;28;89027;-67
2022/08/03 11:58:20;;;;;;;2.40;2.20;;;24.90;99.90;;;;;;6106269;28;89198;-67
2022/08/03 12:01:25;;;;;;;2.30;2.10;;;24.90;99.90;;;;;;6104134;28;87959;-67
2022/08/03 12:04:27;;;;;;;2.42;2.22;;;24.90;99.90;;;;;;6104838;28;89533;-66
2022/08/03 12:07:30;;;;;;;3.03;2.22;;;24.90;99.90;;;;;;6101299;28;87162;-67
2022/08/03 12:10:33;;;;;;;2.50;2.30;;;24.90;99.90;;;;;;6097799;28;89572;-67
2022/08/03 12:13:42;;;;;;;2.05;1.85;;;24.90;99.90;;;;;;6104040;28;90271;-67
2022/08/03 12:16:49;;;;;;;2.50;2.30;;;24.90;99.90;;;;;;6102075;28;90042;-66
2022/08/03 12:19:51;;;;;;;2.40;2.20;;;24.90;99.90;;;;;;6094832;28;89384;-67
2022/08/03 12:22:53;;;;;;;2.55;2.35;;;24.90;99.90;;;;;;6097398;28;89294;-67
2022/08/03 12:26:02;;;;;;;2.30;2.10;;;24.90;99.90;;;;;;6101888;28;87979;-67
2022/08/03 12:29:04;;;;;;;2.42;2.22;;;24.90;99.90;;;;;;6095234;28;89300;-67
2022/08/03 12:32:07;;;;;;;2.45;2.25;;;24.90;99.90;;;;;;6093177;28;89084;-67
2022/08/03 12:35:10;;;;;;;2.20;2.10;;;24.90;99.90;;;;;;6100967;28;89090;-66
2022/08/03 12:38:12;;;;;;;2.20;2.00;;;24.90;99.90;;;;;;6100361;28;87480;-67
2022/08/03 12:41:15;;;;;;;2.20;2.00;;;25.00;99.90;;;;;;6096858;28;89418;-67
2022/08/03 12:44:17;;;;;;;2.33;2.13;;;24.90;99.90;;;;;;6094866;28;89296;-67
2022/08/03 12:47:20;;;;;;;2.30;2.10;;;24.90;99.90;;;;;;6099206;28;88958;-67
2022/08/03 12:50:28;;;;;;;2.28;2.08;;;24.90;99.90;;;;;;6103648;28;89522;-66
2022/08/03 12:53:30;;;;;;;2.63;2.40;;;24.90;99.90;;;;;;6099041;28;89117;-67
2022/08/03 12:56:32;;;;;;;2.45;2.25;;;24.90;99.90;;;;;;6092516;28;89618;-67
2022/08/03 12:59:35;;;;;;;2.28;2.08;;;24.90;99.90;;;;;;6098562;28;88159;-67
2022/08/03 13:02:39;;;;;;;2.00;1.90;;;24.90;99.90;;;;;;6101847;28;89216;-67
2022/08/03 13:05:44;;;;;;;2.20;2.00;;;24.90;99.90;;;;;;6102128;28;89276;-68
2022/08/03 13:08:47;;;;;;;2.58;2.38;;;25.00;99.90;;;;;;6100686;28;88626;-67
2022/08/03 13:12:05;;;;;;;2.45;2.00;;;24.90;99.90;;;;;;6095120;28;89392;-67
2022/08/03 13:15:09;;;;;;;2.20;2.00;;;24.90;99.90;;;;;;6095181;28;88631;-67
2022/08/03 13:18:13;;;;;;;2.38;2.17;;;25.00;99.90;;;;;;6102890;28;90129;-66
2022/08/03 13:21:15;;;;;;;2.30;2.10;;;24.90;99.90;;;;;;6094564;28;89083;-67
2022/08/03 13:24:17;;;;;;;2.03;1.92;;;25.00;99.90;;;;;;6096526;28;89199;-67
2022/08/03 13:27:19;;;;;;;2.20;2.05;;;25.00;99.90;;;;;;6097141;28;89058;-67
2022/08/03 13:30:21;;;;;;;2.22;2.03;;;25.00;99.90;;;;;;6099514;28;88332;-67
2022/08/03 13:33:27;;;;;;;2.28;2.10;;;25.00;99.90;;;;;;6094112;28;89445;-67
2022/08/03 13:36:29;;;;;;;2.40;2.20;;;25.00;99.90;;;;;;6088250;28;89089;-67
2022/08/03 13:39:31;;;;;;;2.20;2.00;;;25.00;99.90;;;;;;6102029;28;89245;-67
2022/08/03 13:42:35;;;;;;;2.38;2.17;;;25.00;99.90;;;;;;6103523;28;89060;-67
2022/08/03 13:45:37;;;;;;;2.13;1.90;;;24.90;99.90;;;;;;6103883;28;87964;-67
2022/08/03 13:48:40;;;;;;;2.03;1.75;;;25.00;99.90;;;;;;6097367;28;90011;-66
2022/08/03 13:51:42;;;;;;;2.00;1.90;;;24.90;99.90;;;;;;6098126;28;89179;-67
2022/08/03 13:54:44;;;;;;;2.22;2.03;;;24.90;99.90;;;;;;6089201;28;88525;-67
2022/08/03 13:57:46;;;;;;;2.03;1.92;;;25.00;99.90;;;;;;6096318;28;88225;-66
2022/08/03 14:00:48;;;;;;;2.25;2.05;;;25.00;99.90;;;;;;6093232;28;89356;-67
2022/08/03 14:03:53;;;;;;;2.20;2.00;;;24.90;99.90;;;;;;6093691;28;89543;-67
2022/08/03 14:06:55;;;;;;;2.47;2.28;;;25.00;99.90;;;;;;6094829;28;89346;-67
2022/08/03 14:09:57;;;;;;;2.53;2.20;;;25.00;99.90;;;;;;6101128;28;88377;-67
2022/08/03 14:13:00;;;;;;;2.38;2.17;;;25.00;99.90;;;;;;6102629;28;89006;-66
2022/08/03 14:16:02;;;;;;;2.22;2.05;;;25.00;99.90;;;;;;6091635;28;89071;-66
2022/08/03 14:19:05;;;;;;;2.00;1.90;;;25.00;99.90;;;;;;6093841;28;90399;-67
2022/08/03 14:22:07;;;;;;;2.33;2.13;;;25.00;99.90;;;;;;6101542;28;89078;-66
2022/08/03 14:25:09;;;;;;;2.40;2.20;;;25.00;99.90;;;;;;6100062;28;89158;-67
2022/08/03 14:28:12;;;;;;;2.22;2.03;;;25.00;99.90;;;;;;6099206;28;89364;-66
2022/08/03 14:31:14;;;;;;;2.10;2.00;;;25.00;99.90;;;;;;6097045;28;89169;-67
2022/08/03 14:34:17;;;;;;;2.50;2.30;;;25.00;99.90;;;;;;6096472;28;89620;-67
2022/08/03 14:37:19;;;;;;;2.35;2.15;;;25.00;99.90;;;;;;6097905;28;89023;-67
2022/08/03 14:40:22;;;;;;;2.13;2.00;;;25.00;99.90;;;;;;6096709;28;88317;-67
2022/08/03 14:43:24;;;;;;;1.90;1.80;;;25.00;99.90;;;;;;6094525;28;87889;-67
2022/08/03 14:46:26;;;;;;;2.40;2.20;;;25.00;99.90;;;;;;6093018;28;89433;-67
2022/08/03 14:49:29;;;;;;;2.47;2.28;;;25.00;99.90;;;;;;6105761;28;89939;-67
2022/08/03 14:52:31;;;;;;;2.00;1.90;;;25.00;99.90;;;;;;6095052;28;89450;-67
2022/08/03 14:55:33;;;;;;;2.03;1.92;;;25.00;99.90;;;;;;6102385;28;89403;-67
2022/08/03 14:58:35;;;;;;;2.53;2.15;;;25.00;99.90;;;;;;6104956;28;89077;-67
2022/08/03 15:01:37;;;;;;;2.13;2.03;;;25.00;99.90;;;;;;6100686;28;89048;-67
2022/08/03 15:04:41;;;;;;;2.10;2.00;;;25.00;99.90;;;;;;6098458;28;89435;-66
2022/08/03 15:07:43;;;;;;;2.10;2.00;;;25.00;99.90;;;;;;6092353;28;89064;-67
2022/08/03 15:10:44;;;;;;;2.30;2.10;;;25.00;99.90;;;;;;6098296;28;88525;-67
2022/08/03 15:13:46;;;;;;;2.17;1.98;;;25.00;99.90;;;;;;6107964;28;89408;-67
2022/08/03 15:16:48;;;;;;;1.90;1.80;;;25.10;99.90;;;;;;6106355;28;89012;-67
2022/08/03 15:19:52;;;;;;;2.38;2.17;;;25.10;99.90;;;;;;6097036;28;90657;-67
2022/08/03 15:22:54;;;;;;;1.90;1.80;;;25.00;99.90;;;;;;6099470;28;89082;-66
2022/08/03 15:25:56;;;;;;;2.00;1.90;;;25.00;99.90;;;;;;6100019;28;87996;-67
2022/08/03 15:28:58;;;;;;;1.83;1.73;;;25.00;99.90;;;;;;6101528;28;89113;-66
2022/08/03 15:32:00;;;;;;;1.90;1.80;;;25.00;99.90;;;;;;6101042;28;89290;-66
2022/08/03 15:35:04;;;;;;;2.03;1.92;;;25.00;99.90;;;;;;6097112;28;89447;-66
2022/08/03 15:38:06;;;;;;;2.60;2.40;;;25.00;99.90;;;;;;6091986;28;89029;-67
2022/08/03 15:41:08;;;;;;;2.00;1.90;;;25.00;99.90;;;;;;6102021;28;88447;-67
2022/08/03 15:44:10;;;;;;;2.00;1.90;;;25.10;99.90;;;;;;6096400;28;89025;-66
2022/08/03 15:47:12;;;;;;;2.33;2.13;;;25.10;99.90;;;;;;6096691;28;89449;-67
2022/08/03 15:50:16;;;;;;;1.95;1.85;;;25.10;99.90;;;;;;6091991;28;90300;-67
2022/08/03 15:53:18;;;;;;;2.22;2.03;;;25.00;99.90;;;;;;6101350;28;89201;-67
2022/08/03 15:56:20;;;;;;;2.15;1.98;;;25.00;99.90;;;;;;6102587;28;88975;-67
2022/08/03 15:59:22;;;;;;;2.33;2.13;;;25.10;99.90;;;;;;6094958;28;89080;-67
2022/08/03 16:02:24;;;;;;;2.00;1.85;;;25.10;99.90;;;;;;6098701;28;88186;-66
2022/08/03 16:05:27;;;;;;;2.13;2.03;;;25.10;99.90;;;;;;6087968;28;89158;-67
2022/08/03 16:08:29;;;;;;;1.90;1.77;;;25.00;99.90;;;;;;6100323;28;89465;-67